Terminal Aerodrome Forecast
Issued by NWS Duluth, MN

Home | Current Version | Previous Version | Text Only | Print | Product List | Glossary On
Versions: 1 2 3 4 5 6 7 8 9 10 11 12 13 14 15 16 17 18 19 20 21 22
000
FTUS43 KDLH 220520
TAFINL
TAF
KINL 220520Z 2206/2306 00000KT P6SM FEW150
     FM221300 26007KT P6SM SCT050
     FM221700 29010G17KT P6SM OVC050
     FM222100 32010KT P6SM -RA SCT020 OVC050
     FM230000 35006KT P6SM -RA SCT007 OVC020=

USA.gov is the U.S. government's official web portal to all federal, state and local government web resources and services.